Time;durP1;ratioP1;P1;durP2;ratioP2;P2;SDS_P1;SDS_P2;PMS_P1;PMS_P2;Temp;Humidity;BMP_temperature;BMP_pressure;BME280_temperature;BME280_humidity;BME280_pressure;Samples;Min_cycle;Max_cycle;Signal;HPM_P1;HPM_P2
2023/01/25 00:01:07;;;;;;;33.83;21.90;;;17.30;78.80;;;;;;1934834;73;21100;-88
2023/01/25 00:03:38;;;;;;;33.42;23.95;;;17.30;78.90;;;;;;1936003;73;21237;-87
2023/01/25 00:06:10;;;;;;;31.77;22.82;;;17.30;78.90;;;;;;1935272;73;22106;-86
2023/01/25 00:08:40;;;;;;;34.43;23.15;;;17.30;78.80;;;;;;1938222;73;21190;-87
2023/01/25 00:11:11;;;;;;;33.18;22.62;;;17.20;78.90;;;;;;1885866;76;21060;-86
2023/01/25 00:13:42;;;;;;;40.92;25.82;;;17.20;78.80;;;;;;1946024;73;21126;-87
2023/01/25 00:16:12;;;;;;;38.67;26.52;;;17.20;78.90;;;;;;1978274;71;21109;-86
2023/01/25 00:18:43;;;;;;;40.58;27.32;;;17.20;79.20;;;;;;1978372;71;21119;-87
2023/01/25 00:21:16;;;;;;;41.98;28.92;;;17.20;79.70;;;;;;1970166;71;21152;-87
2023/01/25 00:23:47;;;;;;;44.88;28.15;;;17.30;79.90;;;;;;1961311;72;21111;-89
2023/01/25 00:26:18;;;;;;;41.48;27.10;;;17.30;80.20;;;;;;1961926;72;21056;-88
2023/01/25 00:28:50;;;;;;;43.10;27.77;;;17.30;80.00;;;;;;1942988;72;21187;-89
2023/01/25 00:31:35;;;;;;;47.45;29.52;;;17.30;80.00;;;;;;1928580;73;21182;-87
2023/01/25 00:34:32;;;;;;;45.85;29.98;;;17.40;80.00;;;;;;1938603;72;21149;-87
2023/01/25 00:37:30;;;;;;;46.63;31.12;;;17.40;79.80;;;;;;1881809;75;21107;-87
2023/01/25 00:40:01;;;;;;;35.40;26.10;;;17.40;79.70;;;;;;1916858;73;21540;-88
2023/01/25 00:42:32;;;;;;;38.53;26.07;;;17.50;79.70;;;;;;1959559;72;21578;-87
2023/01/25 00:45:05;;;;;;;38.73;26.97;;;17.50;80.20;;;;;;1952748;72;21068;-85
2023/01/25 00:47:36;;;;;;;36.50;25.37;;;17.50;80.10;;;;;;1974902;72;21847;-85
2023/01/25 00:50:09;;;;;;;36.53;24.85;;;17.60;79.30;;;;;;1969213;72;21123;-86
2023/01/25 00:52:40;;;;;;;35.68;24.43;;;17.70;79.10;;;;;;1958130;72;21076;-69
2023/01/25 00:55:11;;;;;;;38.40;24.10;;;17.70;78.90;;;;;;1908720;74;21851;-68
2023/01/25 00:57:42;;;;;;;36.70;23.40;;;17.80;78.90;;;;;;1962080;72;21221;-69
2023/01/25 01:00:14;;;;;;;34.70;24.23;;;17.80;79.00;;;;;;1901798;74;21781;-71
2023/01/25 01:02:45;;;;;;;36.48;26.25;;;17.90;78.60;;;;;;1873943;75;21209;-70
2023/01/25 01:05:20;;;;;;;35.43;25.00;;;18.00;78.20;;;;;;1963613;72;21142;-71
2023/01/25 01:07:51;;;;;;;36.70;24.05;;;18.00;77.50;;;;;;1931348;73;21508;-70
2023/01/25 01:10:25;;;;;;;52.43;25.25;;;18.10;77.50;;;;;;1943210;72;21065;-69
2023/01/25 01:12:56;;;;;;;35.50;22.80;;;18.20;77.30;;;;;;1902891;74;21116;-70
2023/01/25 01:15:28;;;;;;;35.33;22.87;;;18.30;76.60;;;;;;1947031;72;21240;-70
2023/01/25 01:17:59;;;;;;;40.65;22.13;;;18.40;75.70;;;;;;1967794;72;21055;-70
2023/01/25 01:20:30;;;;;;;37.90;21.68;;;18.40;76.20;;;;;;1963618;72;21162;-71
2023/01/25 01:23:04;;;;;;;36.20;23.65;;;18.40;74.80;;;;;;1945932;72;21088;-69
2023/01/25 01:25:35;;;;;;;33.28;23.65;;;18.50;74.00;;;;;;1864988;75;21167;-72
2023/01/25 01:28:07;;;;;;;35.63;23.18;;;18.60;73.50;;;;;;1872747;75;21084;-71
2023/01/25 01:30:38;;;;;;;41.13;24.43;;;18.60;73.40;;;;;;1845855;76;21185;-71
2023/01/25 01:33:09;;;;;;;38.75;23.95;;;18.70;73.10;;;;;;1880627;75;21537;-70
2023/01/25 01:35:45;;;;;;;32.30;22.55;;;18.80;72.00;;;;;;1868463;75;21076;-72
2023/01/25 01:38:15;;;;;;;37.65;23.20;;;18.80;70.40;;;;;;1862733;75;21254;-69
2023/01/25 01:40:47;;;;;;;35.78;22.77;;;18.80;69.60;;;;;;1878140;75;21108;-72
2023/01/25 01:43:23;;;;;;;33.02;22.42;;;18.80;67.80;;;;;;1872837;75;21125;-70
2023/01/25 01:45:59;;;;;;;31.82;22.98;;;18.70;68.70;;;;;;1874747;75;21182;-69
2023/01/25 01:48:51;;;;;;;32.58;22.20;;;18.80;68.80;;;;;;1877516;75;21281;-71
2023/01/25 01:51:44;;;;;;;35.43;21.10;;;18.80;69.20;;;;;;1868665;76;21605;-72
2023/01/25 01:54:32;;;;;;;31.25;21.35;;;18.80;67.30;;;;;;1878650;75;21161;-71
2023/01/25 01:57:06;;;;;;;29.37;18.65;;;18.90;67.50;;;;;;1870415;76;21198;-70
2023/01/25 01:59:39;;;;;;;28.15;16.93;;;18.90;66.20;;;;;;1874326;75;21222;-71
2023/01/25 02:02:10;;;;;;;29.23;18.77;;;18.90;64.40;;;;;;1875471;75;21084;-71
2023/01/25 02:04:43;;;;;;;28.92;18.65;;;18.90;64.00;;;;;;1872518;75;21148;-71
2023/01/25 02:07:22;;;;;;;30.90;18.23;;;19.00;64.30;;;;;;1872340;75;21104;-74
2023/01/25 02:09:53;;;;;;;27.98;19.00;;;19.00;64.00;;;;;;1873781;75;21120;-70
2023/01/25 02:12:24;;;;;;;29.75;19.27;;;19.00;63.90;;;;;;1878751;75;21168;-70
2023/01/25 02:14:56;;;;;;;28.45;18.75;;;19.10;62.80;;;;;;1856221;76;21664;-70
2023/01/25 02:17:32;;;;;;;30.30;18.77;;;19.10;62.80;;;;;;1857229;76;21193;-71
2023/01/25 02:20:25;;;;;;;28.47;19.12;;;19.20;63.40;;;;;;1850597;76;21211;-69
2023/01/25 02:23:28;;;;;;;27.35;18.50;;;19.20;63.70;;;;;;1867226;75;21140;-71
2023/01/25 02:26:03;;;;;;;31.05;18.80;;;19.30;62.50;;;;;;1883928;75;21122;-71
2023/01/25 02:28:43;;;;;;;24.07;16.75;;;19.40;61.80;;;;;;1885937;75;21225;-70
2023/01/25 02:31:15;;;;;;;28.05;17.40;;;19.40;61.40;;;;;;1877350;75;21163;-70
2023/01/25 02:33:46;;;;;;;26.35;17.37;;;19.50;61.60;;;;;;1840031;76;21160;-72
2023/01/25 02:36:23;;;;;;;27.13;17.98;;;19.60;61.80;;;;;;1897930;74;21071;-70
2023/01/25 02:39:15;;;;;;;26.35;18.42;;;19.60;60.50;;;;;;1845160;76;21064;-71
2023/01/25 02:41:48;;;;;;;26.75;17.80;;;19.70;61.40;;;;;;1887372;74;21078;-70
2023/01/25 02:44:22;;;;;;;27.55;17.65;;;19.80;60.30;;;;;;1839726;76;21118;-70
2023/01/25 02:46:54;;;;;;;31.23;18.35;;;19.90;60.40;;;;;;1877216;75;21127;-71
2023/01/25 02:49:25;;;;;;;31.05;19.87;;;20.00;60.40;;;;;;1881109;75;21076;-70
2023/01/25 02:51:57;;;;;;;27.30;18.50;;;20.00;60.10;;;;;;1878981;75;21738;-70
2023/01/25 02:54:27;;;;;;;26.17;17.92;;;20.00;60.20;;;;;;1888038;75;21044;-72
2023/01/25 02:56:58;;;;;;;28.42;18.82;;;20.00;60.50;;;;;;1879897;75;21209;-71
2023/01/25 02:59:29;;;;;;;24.80;17.95;;;20.00;60.20;;;;;;1875721;75;21127;-71
2023/01/25 03:02:01;;;;;;;24.65;18.15;;;20.00;60.50;;;;;;1877437;75;21159;-70
2023/01/25 03:04:32;;;;;;;30.00;19.17;;;20.10;59.50;;;;;;1878822;75;21154;-71
2023/01/25 03:07:03;;;;;;;27.02;19.15;;;20.10;59.70;;;;;;1876897;75;21116;-70
2023/01/25 03:09:33;;;;;;;35.90;22.55;;;20.10;59.40;;;;;;1846347;75;21159;-71
2023/01/25 03:12:04;;;;;;;27.62;19.05;;;20.10;60.00;;;;;;1816171;77;21159;-71
2023/01/25 03:14:35;;;;;;;28.10;18.52;;;20.20;59.70;;;;;;1846294;76;21143;-70
2023/01/25 03:17:07;;;;;;;31.95;20.88;;;20.20;59.80;;;;;;1876791;75;21155;-71
2023/01/25 03:19:38;;;;;;;27.98;20.50;;;20.30;60.10;;;;;;1875825;75;21248;-70
2023/01/25 03:22:09;;;;;;;31.70;20.90;;;20.40;60.30;;;;;;1877553;75;21135;-71
2023/01/25 03:24:40;;;;;;;34.30;22.42;;;20.50;59.50;;;;;;1875344;75;21136;-70
2023/01/25 03:27:17;;;;;;;34.75;22.93;;;20.60;59.80;;;;;;1929354;73;21136;-72
2023/01/25 03:29:44;;;;;;;35.40;24.50;;;20.70;59.10;;;;;;1925996;73;21125;-70
2023/01/25 03:32:15;;;;;;;37.00;25.05;;;20.70;59.40;;;;;;1921720;73;21169;-69
2023/01/25 03:34:46;;;;;;;35.45;23.92;;;20.80;59.00;;;;;;1929637;73;21116;-74
2023/01/25 03:37:17;;;;;;;34.38;24.02;;;20.90;59.70;;;;;;1930406;73;21123;-69
2023/01/25 03:39:48;;;;;;;32.55;22.37;;;20.90;59.00;;;;;;1925712;73;21131;-70
2023/01/25 03:42:21;;;;;;;31.60;21.82;;;21.00;59.20;;;;;;1925220;73;21669;-70
2023/01/25 03:44:51;;;;;;;31.90;21.82;;;21.00;58.80;;;;;;1921908;73;21127;-69
2023/01/25 03:47:22;;;;;;;34.43;21.30;;;21.10;58.70;;;;;;1931785;73;21231;-69
2023/01/25 03:49:53;;;;;;;38.25;21.82;;;21.20;58.70;;;;;;1927394;73;21228;-69
2023/01/25 03:52:37;;;;;;;35.00;20.70;;;21.30;58.50;;;;;;1926441;73;21724;-70
2023/01/25 03:54:58;;;;;;;31.48;19.82;;;21.40;58.50;;;;;;1925087;73;21576;-70
2023/01/25 03:57:29;;;;;;;29.67;19.82;;;21.50;58.00;;;;;;1927247;73;21097;-69
2023/01/25 04:00:01;;;;;;;29.30;19.05;;;21.60;57.90;;;;;;1941688;73;21122;-72
2023/01/25 04:02:32;;;;;;;32.80;19.82;;;21.70;57.70;;;;;;1934014;73;21213;-69
2023/01/25 04:05:03;;;;;;;28.55;18.42;;;21.80;56.70;;;;;;1930016;73;21579;-68
2023/01/25 04:07:40;;;;;;;31.02;20.37;;;21.90;56.30;;;;;;1932678;73;21115;-69
2023/01/25 04:10:11;;;;;;;25.52;18.25;;;21.90;55.80;;;;;;1936945;73;21053;-68
2023/01/25 04:12:42;;;;;;;26.27;18.40;;;22.00;56.40;;;;;;1936762;73;21071;-71
2023/01/25 04:15:14;;;;;;;26.02;18.32;;;22.10;56.10;;;;;;1934335;73;21035;-71
2023/01/25 04:17:47;;;;;;;23.02;17.12;;;22.20;56.20;;;;;;1934126;73;21133;-71
2023/01/25 04:20:24;;;;;;;23.62;16.82;;;22.30;56.00;;;;;;1936874;73;21190;-72
2023/01/25 04:22:51;;;;;;;33.80;17.45;;;22.40;56.00;;;;;;1929206;73;21069;-71
2023/01/25 04:25:23;;;;;;;23.62;16.67;;;22.60;54.70;;;;;;1921992;73;21143;-71
2023/01/25 04:27:54;;;;;;;23.27;16.42;;;22.70;54.40;;;;;;1922625;73;21641;-71
2023/01/25 04:30:25;;;;;;;23.65;17.10;;;22.80;54.20;;;;;;1921749;73;21201;-72
2023/01/25 04:32:55;;;;;;;25.75;17.48;;;22.90;54.70;;;;;;1948471;72;21149;-73
2023/01/25 04:35:26;;;;;;;24.35;16.07;;;23.00;53.50;;;;;;1951180;72;21743;-71
2023/01/25 04:37:58;;;;;;;23.52;16.45;;;23.10;53.50;;;;;;1948594;72;21099;-71
2023/01/25 04:40:29;;;;;;;24.32;15.98;;;23.20;53.30;;;;;;1956436;72;21134;-70
2023/01/25 04:43:00;;;;;;;19.90;14.53;;;23.30;53.10;;;;;;1921701;73;21178;-71
2023/01/25 04:45:31;;;;;;;25.50;16.15;;;23.40;52.60;;;;;;1944788;72;21594;-71
2023/01/25 04:48:04;;;;;;;22.40;15.05;;;23.40;52.60;;;;;;1951330;72;21120;-72
2023/01/25 04:50:35;;;;;;;22.77;15.72;;;23.50;52.30;;;;;;1904167;74;21160;-69
2023/01/25 04:53:07;;;;;;;21.25;15.20;;;23.50;52.80;;;;;;1889697;75;21092;-70
2023/01/25 04:55:38;;;;;;;20.60;15.00;;;23.60;52.30;;;;;;1952155;72;21135;-69
2023/01/25 04:58:09;;;;;;;19.52;14.33;;;23.60;52.00;;;;;;1911396;74;21065;-70
2023/01/25 05:00:40;;;;;;;21.07;14.70;;;23.80;51.90;;;;;;1908042;74;21109;-72
2023/01/25 05:03:12;;;;;;;19.07;14.55;;;23.90;52.40;;;;;;1888757;74;21073;-72
2023/01/25 05:05:50;;;;;;;21.70;15.18;;;24.00;52.20;;;;;;1935731;74;21172;-71
2023/01/25 05:08:21;;;;;;;20.08;14.80;;;24.10;51.90;;;;;;1935610;73;21175;-69
2023/01/25 05:10:58;;;;;;;22.00;15.28;;;24.20;51.80;;;;;;1938413;72;21582;-70
2023/01/25 05:13:29;;;;;;;20.55;14.33;;;24.20;51.10;;;;;;1954188;72;21695;-71
2023/01/25 05:16:00;;;;;;;18.12;13.90;;;24.30;51.20;;;;;;1901101;74;21095;-71
2023/01/25 05:18:31;;;;;;;22.60;15.48;;;24.30;50.70;;;;;;1913336;74;21658;-71
2023/01/25 05:21:04;;;;;;;21.90;14.50;;;24.40;50.40;;;;;;1861393;75;21151;-71
2023/01/25 05:23:35;;;;;;;25.57;15.32;;;24.50;50.40;;;;;;1869502;75;21134;-71
2023/01/25 05:28:55;;;;;;;23.65;14.40;;;24.50;50.60;;;;;;1864049;75;21585;-71
2023/01/25 05:31:26;;;;;;;22.95;14.90;;;24.60;50.70;;;;;;1898073;74;21201;-71
2023/01/25 05:34:00;;;;;;;21.30;14.05;;;24.70;50.40;;;;;;1882576;74;21555;-69
2023/01/25 05:36:31;;;;;;;21.25;15.03;;;24.70;50.60;;;;;;1882451;74;21128;-71
2023/01/25 05:39:02;;;;;;;17.55;13.88;;;24.80;50.10;;;;;;1859568;75;21147;-70
2023/01/25 05:41:33;;;;;;;20.48;14.23;;;24.90;50.00;;;;;;1851957;75;21529;-72
2023/01/25 05:44:04;;;;;;;19.82;14.38;;;24.90;50.10;;;;;;1853443;76;21244;-70
2023/01/25 05:46:35;;;;;;;19.57;14.65;;;25.00;51.00;;;;;;1847674;76;21167;-70
2023/01/25 05:49:06;;;;;;;21.17;14.75;;;25.10;50.00;;;;;;1861486;75;21658;-72
2023/01/25 05:51:38;;;;;;;17.70;13.58;;;25.20;49.50;;;;;;1852008;76;21156;-73
2023/01/25 05:54:11;;;;;;;20.35;14.78;;;25.30;49.30;;;;;;1853939;76;21122;-70
2023/01/25 05:56:43;;;;;;;20.70;14.60;;;25.30;49.30;;;;;;1886671;75;21582;-70
2023/01/25 05:59:16;;;;;;;19.87;14.35;;;25.30;49.20;;;;;;1850243;75;21650;-71
2023/01/25 06:01:47;;;;;;;22.13;14.20;;;25.30;49.30;;;;;;1882533;75;21108;-72
2023/01/25 06:04:18;;;;;;;19.87;14.35;;;25.40;49.40;;;;;;1882588;75;21610;-71
2023/01/25 06:06:49;;;;;;;18.17;14.15;;;25.40;50.00;;;;;;1886919;75;21099;-72
2023/01/25 06:09:21;;;;;;;23.10;14.23;;;25.40;49.80;;;;;;1855587;75;21096;-72
2023/01/25 06:11:52;;;;;;;20.77;15.08;;;25.40;49.30;;;;;;1947036;72;21484;-70
2023/01/25 06:14:23;;;;;;;21.05;14.73;;;25.40;49.80;;;;;;1941976;72;21068;-73
2023/01/25 06:16:54;;;;;;;21.25;14.20;;;25.40;49.70;;;;;;1936266;72;21074;-70
2023/01/25 06:19:25;;;;;;;28.23;14.70;;;25.40;49.10;;;;;;1938780;72;21082;-72
2023/01/25 06:21:56;;;;;;;20.08;14.78;;;25.40;49.40;;;;;;1935296;72;21208;-70
2023/01/25 06:24:27;;;;;;;19.02;14.07;;;25.40;49.80;;;;;;1937707;72;21170;-71
2023/01/25 06:26:59;;;;;;;17.67;14.63;;;25.50;49.50;;;;;;1883263;74;21189;-72
2023/01/25 06:29:30;;;;;;;19.73;13.18;;;25.50;49.20;;;;;;1943875;72;21597;-70
2023/01/25 06:32:00;;;;;;;23.55;14.45;;;25.50;49.40;;;;;;1943250;72;21642;-71
2023/01/25 06:34:31;;;;;;;21.12;14.95;;;25.60;49.60;;;;;;1938024;73;21142;-71
2023/01/25 06:37:03;;;;;;;18.32;14.20;;;25.70;49.80;;;;;;1926527;73;21073;-70
2023/01/25 06:39:34;;;;;;;18.77;13.88;;;25.80;49.30;;;;;;1931627;73;21221;-71
2023/01/25 06:42:05;;;;;;;25.05;15.08;;;25.80;48.80;;;;;;1931712;73;21060;-70
2023/01/25 06:44:36;;;;;;;19.05;13.18;;;25.90;48.80;;;;;;1879424;74;21198;-72
2023/01/25 06:47:09;;;;;;;20.30;15.18;;;25.80;48.50;;;;;;1872274;76;21081;-70
2023/01/25 06:49:40;;;;;;;23.98;14.53;;;25.80;49.50;;;;;;1896236;75;21583;-69
2023/01/25 06:52:11;;;;;;;21.17;14.20;;;25.80;49.20;;;;;;1890607;74;21077;-70
2023/01/25 06:54:43;;;;;;;20.80;14.13;;;25.80;48.80;;;;;;1888678;75;21244;-70
2023/01/25 06:57:13;;;;;;;20.27;13.30;;;25.80;49.10;;;;;;1888137;75;21060;-71
2023/01/25 06:59:44;;;;;;;20.62;13.88;;;25.80;49.10;;;;;;1928550;73;21136;-69
2023/01/25 07:02:16;;;;;;;20.17;13.43;;;25.80;48.80;;;;;;1941024;73;21136;-71
2023/01/25 07:04:47;;;;;;;20.62;13.95;;;25.80;49.20;;;;;;1942916;73;21182;-69
2023/01/25 07:07:18;;;;;;;18.75;12.93;;;25.80;48.50;;;;;;1940306;73;21068;-71
2023/01/25 07:09:49;;;;;;;21.02;14.07;;;25.80;48.80;;;;;;1937055;73;21634;-70
2023/01/25 07:12:21;;;;;;;20.72;14.20;;;25.90;49.10;;;;;;1934144;73;21241;-71
2023/01/25 07:14:52;;;;;;;24.92;15.38;;;25.90;48.80;;;;;;1935053;73;21623;-70
2023/01/25 07:17:23;;;;;;;18.67;15.00;;;26.00;48.50;;;;;;1926509;73;21070;-71
2023/01/25 07:19:54;;;;;;;20.68;15.15;;;26.00;48.80;;;;;;1932692;73;21198;-70
2023/01/25 07:22:25;;;;;;;20.30;14.13;;;25.90;48.50;;;;;;1930482;73;21630;-71
2023/01/25 07:24:57;;;;;;;18.30;14.13;;;26.00;48.60;;;;;;1881217;74;21150;-75
2023/01/25 07:27:34;;;;;;;20.60;15.15;;;26.00;48.60;;;;;;1876824;75;21064;-71
2023/01/25 07:30:06;;;;;;;21.23;15.58;;;26.00;48.40;;;;;;1877450;75;21066;-71
2023/01/25 07:32:37;;;;;;;21.25;15.40;;;26.00;48.50;;;;;;1873868;75;21123;-70
2023/01/25 07:35:09;;;;;;;19.65;13.68;;;25.90;48.60;;;;;;1881956;75;21132;-70
2023/01/25 07:37:40;;;;;;;20.92;13.85;;;26.00;48.80;;;;;;1876489;75;21083;-71
2023/01/25 07:40:12;;;;;;;17.55;13.15;;;26.00;49.00;;;;;;1872527;75;21198;-71
2023/01/25 07:42:53;;;;;;;21.95;13.62;;;25.90;48.80;;;;;;1912722;74;21074;-71
2023/01/25 07:45:30;;;;;;;22.45;14.95;;;25.90;48.90;;;;;;1893051;74;21161;-70
2023/01/25 07:48:06;;;;;;;19.15;13.30;;;26.00;49.20;;;;;;1889034;74;21539;-71
2023/01/25 07:50:38;;;;;;;15.95;12.82;;;26.00;49.20;;;;;;1886926;74;21200;-71
2023/01/25 07:53:09;;;;;;;24.57;14.00;;;26.00;49.30;;;;;;1897922;74;21170;-70
2023/01/25 07:55:40;;;;;;;20.23;13.08;;;26.00;48.70;;;;;;1892342;74;21425;-72
2023/01/25 07:58:16;;;;;;;21.05;14.45;;;26.00;48.60;;;;;;1886894;74;21189;-70
2023/01/25 08:00:53;;;;;;;21.50;14.17;;;26.00;48.30;;;;;;1899020;74;21117;-72
2023/01/25 08:03:21;;;;;;;17.50;13.28;;;26.00;48.70;;;;;;1895366;74;21275;-72
2023/01/25 08:06:04;;;;;;;17.20;13.18;;;26.00;48.80;;;;;;1889914;74;21116;-71
2023/01/25 08:08:28;;;;;;;18.52;14.23;;;26.00;48.10;;;;;;1902303;74;21649;-70
2023/01/25 08:10:59;;;;;;;17.98;12.98;;;26.00;48.40;;;;;;1889709;74;21169;-71
2023/01/25 08:13:30;;;;;;;19.17;12.82;;;25.90;48.50;;;;;;1903680;74;21110;-71
2023/01/25 08:16:01;;;;;;;19.52;13.50;;;25.90;48.40;;;;;;1896620;74;21807;-69
2023/01/25 08:18:32;;;;;;;23.12;13.55;;;25.90;48.60;;;;;;1891508;74;21136;-70
2023/01/25 08:21:05;;;;;;;17.80;14.43;;;25.90;49.00;;;;;;1892032;74;21040;-70
2023/01/25 08:23:36;;;;;;;16.67;12.88;;;25.90;48.20;;;;;;1895112;74;21075;-72
2023/01/25 08:26:09;;;;;;;17.37;13.70;;;25.80;48.40;;;;;;1902196;73;21122;-72
2023/01/25 08:28:41;;;;;;;19.92;14.05;;;25.80;48.70;;;;;;1934758;73;21114;-70
2023/01/25 08:31:17;;;;;;;18.30;13.70;;;25.80;49.10;;;;;;1893192;74;21146;-70
2023/01/25 08:33:50;;;;;;;15.70;13.68;;;25.80;49.10;;;;;;1862009;75;21103;-70
2023/01/25 08:36:22;;;;;;;20.68;13.70;;;25.80;48.70;;;;;;1934972;73;21219;-69
2023/01/25 08:39:03;;;;;;;18.62;14.68;;;25.80;49.10;;;;;;1925030;73;21397;-70
2023/01/25 08:41:35;;;;;;;22.67;14.35;;;25.70;48.80;;;;;;1931748;73;21048;-70
2023/01/25 08:44:08;;;;;;;21.48;14.53;;;25.80;49.10;;;;;;1969209;71;21515;-71
2023/01/25 08:46:39;;;;;;;18.77;14.13;;;25.70;49.10;;;;;;1943001;73;21117;-71
2023/01/25 08:49:13;;;;;;;17.00;14.07;;;25.80;50.10;;;;;;1940391;73;21104;-70
2023/01/25 08:51:46;;;;;;;18.02;14.47;;;25.80;49.20;;;;;;1930207;73;21099;-71
2023/01/25 08:54:17;;;;;;;20.40;13.65;;;25.70;49.10;;;;;;1937161;72;21126;-72
2023/01/25 08:56:48;;;;;;;19.95;14.43;;;25.70;49.20;;;;;;1885576;74;21076;-71
2023/01/25 08:59:19;;;;;;;20.72;14.60;;;25.70;49.10;;;;;;1870380;75;21614;-71
2023/01/25 09:01:50;;;;;;;18.67;14.07;;;25.70;48.90;;;;;;1874198;75;21087;-70
2023/01/25 09:04:27;;;;;;;17.35;12.98;;;25.70;49.30;;;;;;1888565;73;21134;-71
2023/01/25 09:06:54;;;;;;;20.23;13.43;;;25.70;49.30;;;;;;1859507;76;21135;-71
2023/01/25 09:09:25;;;;;;;19.37;13.35;;;25.70;49.10;;;;;;1859534;75;21201;-70
2023/01/25 09:11:56;;;;;;;23.52;13.75;;;25.70;48.90;;;;;;1853728;75;21159;-71
2023/01/25 09:14:28;;;;;;;20.82;13.50;;;25.70;50.10;;;;;;1853588;75;21095;-71
2023/01/25 09:16:59;;;;;;;18.92;13.65;;;25.70;49.80;;;;;;1909001;74;21552;-71
2023/01/25 09:19:30;;;;;;;17.95;13.60;;;25.60;49.10;;;;;;1888378;74;21178;-70
2023/01/25 09:22:02;;;;;;;20.68;13.72;;;25.70;49.10;;;;;;1900231;73;21631;-71
2023/01/25 09:24:33;;;;;;;19.40;14.60;;;25.70;48.70;;;;;;1890000;75;21127;-69
2023/01/25 09:27:06;;;;;;;17.17;14.00;;;25.70;49.20;;;;;;1914165;73;21239;-70
2023/01/25 09:29:37;;;;;;;20.62;14.03;;;25.70;49.30;;;;;;1936722;72;21111;-69
2023/01/25 09:32:09;;;;;;;23.15;15.13;;;25.70;49.60;;;;;;1939978;72;21133;-71
2023/01/25 09:34:41;;;;;;;21.85;13.70;;;25.70;49.50;;;;;;1936380;73;21108;-70
2023/01/25 09:37:12;;;;;;;19.40;14.50;;;25.70;49.60;;;;;;1929073;73;21600;-69
2023/01/25 09:39:43;;;;;;;20.62;13.95;;;25.60;49.20;;;;;;1936012;73;21175;-69
2023/01/25 09:42:33;;;;;;;19.30;15.05;;;25.60;50.00;;;;;;1941290;73;21134;-70
2023/01/25 09:45:18;;;;;;;23.77;14.53;;;25.60;49.60;;;;;;1935654;73;21154;-70
2023/01/25 09:47:58;;;;;;;17.98;13.72;;;25.60;49.80;;;;;;1939388;73;21218;-71
2023/01/25 09:50:34;;;;;;;19.27;13.95;;;25.50;49.90;;;;;;1934571;73;21528;-70
2023/01/25 09:53:23;;;;;;;19.82;13.80;;;25.50;50.10;;;;;;1934327;73;21086;-70
2023/01/25 09:56:00;;;;;;;21.23;14.30;;;25.50;50.40;;;;;;1927425;73;21193;-70
2023/01/25 09:58:37;;;;;;;;;;;25.40;50.20;;;;;;1942835;73;21182;-70
2023/01/25 10:01:15;;;;;;;18.27;12.98;;;25.40;50.50;;;;;;1883099;74;20209;-71
2023/01/25 10:03:53;;;;;;;20.65;14.35;;;25.30;50.30;;;;;;1846747;76;21237;-70
2023/01/25 10:06:27;;;;;;;22.77;14.33;;;25.30;50.50;;;;;;1888628;74;21761;-71
2023/01/25 10:09:07;;;;;;;21.70;13.93;;;25.30;50.50;;;;;;1889114;74;21106;-70
2023/01/25 10:11:39;;;;;;;25.02;13.95;;;25.30;50.70;;;;;;1932318;73;21642;-71
2023/01/25 10:14:17;;;;;;;19.10;14.30;;;25.30;50.70;;;;;;1928663;73;21093;-71
2023/01/25 10:16:50;;;;;;;18.93;14.30;;;25.20;50.80;;;;;;1888178;74;21887;-71
2023/01/25 10:19:27;;;;;;;21.87;15.28;;;25.20;51.10;;;;;;1881798;75;22300;-68
2023/01/25 10:22:16;;;;;;;20.72;14.58;;;25.20;51.20;;;;;;1850823;76;21729;-70
2023/01/25 10:24:55;;;;;;;18.37;13.98;;;25.10;51.10;;;;;;1850478;76;21163;-70
2023/01/25 10:27:55;;;;;;;20.12;14.45;;;25.10;51.20;;;;;;1854713;75;21628;-69
2023/01/25 10:30:32;;;;;;;20.30;14.40;;;25.10;51.10;;;;;;1960203;72;21179;-69
2023/01/25 10:33:09;;;;;;;22.35;14.35;;;25.00;51.10;;;;;;1959425;72;21115;-69
2023/01/25 10:35:44;;;;;;;20.37;14.18;;;25.00;51.20;;;;;;1960478;72;21111;-69
2023/01/25 10:38:27;;;;;;;24.43;14.50;;;24.90;51.40;;;;;;1971024;72;21136;-68
2023/01/25 10:41:01;;;;;;;18.48;13.50;;;24.90;51.60;;;;;;1961045;72;21204;-70
2023/01/25 10:43:31;;;;;;;18.80;14.15;;;24.90;51.90;;;;;;1951183;72;21088;-70
2023/01/25 10:46:03;;;;;;;25.15;15.13;;;24.80;51.80;;;;;;1960908;72;21064;-69
2023/01/25 10:48:36;;;;;;;23.38;14.10;;;24.80;52.00;;;;;;1969782;72;21181;-70
2023/01/25 10:51:11;;;;;;;20.08;14.93;;;24.80;52.00;;;;;;1968204;72;21149;-72
2023/01/25 10:53:43;;;;;;;18.87;13.68;;;24.70;52.20;;;;;;1959443;72;21496;-71
2023/01/25 10:56:18;;;;;;;24.10;14.40;;;24.70;52.30;;;;;;1977434;72;21040;-70
2023/01/25 10:58:53;;;;;;;22.90;15.23;;;24.70;53.40;;;;;;1966702;72;21037;-71
2023/01/25 11:01:32;;;;;;;19.98;14.63;;;24.70;52.70;;;;;;1961449;72;21133;-69
2023/01/25 11:04:09;;;;;;;22.10;14.13;;;24.60;53.00;;;;;;1911172;73;21658;-69
2023/01/25 11:06:51;;;;;;;23.57;14.85;;;24.60;53.10;;;;;;1944557;72;21733;-69
2023/01/25 11:09:42;;;;;;;17.77;14.00;;;24.60;53.20;;;;;;1959165;72;21126;-69
2023/01/25 11:12:19;;;;;;;21.00;14.93;;;24.60;53.40;;;;;;1920227;73;21547;-69
2023/01/25 11:14:50;;;;;;;19.95;15.43;;;24.50;53.50;;;;;;1866416;75;21606;-69
2023/01/25 11:17:24;;;;;;;18.02;13.78;;;24.60;53.70;;;;;;1880321;75;21132;-70
2023/01/25 11:20:17;;;;;;;21.02;14.53;;;24.50;53.80;;;;;;1896614;74;21115;-69
2023/01/25 11:22:54;;;;;;;28.40;15.83;;;24.50;54.00;;;;;;1897068;74;21236;-69
2023/01/25 11:25:29;;;;;;;24.85;17.65;;;24.50;54.30;;;;;;1898340;75;21496;-70
2023/01/25 11:28:18;;;;;;;30.05;20.40;;;24.40;54.40;;;;;;1924392;73;21212;-71
2023/01/25 11:30:51;;;;;;;29.65;19.55;;;24.40;54.40;;;;;;1923587;73;21843;-71
2023/01/25 11:33:25;;;;;;;28.98;19.35;;;24.40;54.60;;;;;;1864849;75;21242;-70
2023/01/25 11:36:25;;;;;;;26.17;18.73;;;24.40;54.80;;;;;;1924429;73;21142;-70
2023/01/25 11:38:59;;;;;;;25.17;17.65;;;24.40;54.90;;;;;;1899978;73;21213;-71
2023/01/25 11:41:32;;;;;;;21.97;16.40;;;24.30;55.00;;;;;;1881076;75;21072;-71
2023/01/25 11:44:31;;;;;;;27.77;17.92;;;24.30;55.10;;;;;;1866123;75;21147;-70
2023/01/25 11:47:06;;;;;;;26.07;17.23;;;24.30;55.30;;;;;;1924637;73;21155;-69
2023/01/25 11:49:51;;;;;;;22.22;15.35;;;24.20;55.30;;;;;;1923059;73;21173;-69
2023/01/25 11:52:30;;;;;;;27.32;16.85;;;24.20;55.50;;;;;;1922227;73;21200;-70
2023/01/25 11:55:19;;;;;;;25.97;18.32;;;24.20;55.50;;;;;;1923119;73;21134;-70
2023/01/25 11:58:07;;;;;;;28.30;17.80;;;24.20;55.60;;;;;;1918781;73;21166;-69
2023/01/25 12:00:47;;;;;;;26.87;17.45;;;24.20;55.70;;;;;;1920531;73;21289;-69
2023/01/25 12:03:35;;;;;;;29.50;19.37;;;24.20;55.80;;;;;;1918112;73;21216;-69
2023/01/25 12:06:17;;;;;;;;;;;24.20;56.00;;;;;;1922975;73;21064;-70
2023/01/25 12:09:01;;;;;;;39.67;20.35;;;24.20;56.00;;;;;;1924997;73;20148;-70
2023/01/25 12:11:58;;;;;;;29.80;19.55;;;24.10;56.10;;;;;;1924742;73;21196;-70
2023/01/25 12:14:34;;;;;;;28.73;19.32;;;24.10;56.30;;;;;;1914301;73;21516;-68
2023/01/25 12:17:18;;;;;;;28.70;20.00;;;24.10;56.40;;;;;;1917894;73;21154;-70
2023/01/25 12:19:58;;;;;;;30.20;19.32;;;24.00;56.50;;;;;;1921038;73;21154;-69
2023/01/25 12:22:59;;;;;;;35.35;20.48;;;24.00;56.60;;;;;;1919347;73;21567;-69
2023/01/25 12:25:50;;;;;;;33.35;21.52;;;24.00;56.70;;;;;;1917635;73;21121;-69
2023/01/25 12:28:24;;;;;;;37.50;21.77;;;23.90;56.90;;;;;;1914785;73;22245;-70
2023/01/25 12:31:15;;;;;;;39.03;23.15;;;23.90;57.00;;;;;;1877738;75;21068;-69
2023/01/25 12:33:52;;;;;;;43.40;25.23;;;23.90;57.20;;;;;;1850912;75;21874;-69
2023/01/25 12:36:39;;;;;;;36.88;24.10;;;23.90;57.40;;;;;;1885798;74;21249;-70
2023/01/25 12:39:16;;;;;;;41.18;24.60;;;23.80;57.40;;;;;;1886370;74;21655;-70
2023/01/25 12:41:53;;;;;;;43.40;25.15;;;23.80;57.50;;;;;;1881330;75;21232;-70
2023/01/25 12:44:26;;;;;;;39.83;26.57;;;23.80;57.60;;;;;;1879602;75;21456;-69
2023/01/25 12:47:03;;;;;;;39.05;25.80;;;23.80;57.90;;;;;;1897285;75;21064;-70
2023/01/25 12:49:40;;;;;;;58.95;40.03;;;23.70;58.10;;;;;;1893460;75;21174;-68
2023/01/25 12:52:25;;;;;;;56.18;34.48;;;23.70;58.30;;;;;;1893820;75;21550;-70
2023/01/25 12:54:59;;;;;;;73.65;48.35;;;23.70;58.30;;;;;;1895715;74;21133;-69
2023/01/25 12:57:40;;;;;;;56.53;35.45;;;23.70;58.50;;;;;;1899506;74;21094;-69
2023/01/25 13:00:29;;;;;;;59.20;37.03;;;23.60;58.60;;;;;;1865150;75;21634;-70
2023/01/25 13:03:24;;;;;;;44.00;28.80;;;23.60;58.50;;;;;;1897262;75;21547;-70
2023/01/25 13:06:01;;;;;;;48.92;30.80;;;23.60;58.60;;;;;;1892375;74;21210;-69
2023/01/25 13:08:51;;;;;;;42.33;26.65;;;23.60;58.60;;;;;;1909429;74;21221;-69